createdAt,value
2019-02-14T00:00:12.123Z,7.00
2019-02-14T00:02:40.594Z,7.00
2019-02-14T00:05:16.132Z,7.00
2019-02-14T00:07:39.343Z,7.00
2019-02-14T00:10:09.326Z,7.00
2019-02-14T00:12:37.797Z,7.00
2019-02-14T00:15:13.822Z,7.00
2019-02-14T00:17:42.269Z,7.00
2019-02-14T00:20:10.779Z,7.00
2019-02-14T00:22:39.237Z,7.00
2019-02-14T00:25:07.857Z,7.00
2019-02-14T00:27:36.376Z,7.00
2019-02-14T00:30:06.638Z,7.00
2019-02-14T00:32:35.120Z,7.00
2019-02-14T00:35:03.723Z,7.00
2019-02-14T00:37:32.170Z,7.00
2019-02-14T00:40:00.607Z,6.90
2019-02-14T00:42:29.074Z,6.90
2019-02-14T00:44:57.509Z,7.00
2019-02-14T00:47:25.968Z,6.90
2019-02-14T00:49:54.399Z,7.00
2019-02-14T00:52:22.861Z,7.10
2019-02-14T00:54:51.354Z,7.00
2019-02-14T00:57:19.873Z,7.00
2019-02-14T00:59:48.312Z,7.00
2019-02-14T01:02:16.761Z,6.90
2019-02-14T01:04:45.201Z,7.00
2019-02-14T01:07:13.654Z,6.90
2019-02-14T01:09:42.126Z,6.90
2019-02-14T01:12:10.843Z,7.00
2019-02-14T01:14:39.284Z,6.90
2019-02-14T01:17:07.775Z,6.90
2019-02-14T01:19:36.241Z,6.90
2019-02-14T01:22:04.700Z,6.90
2019-02-14T01:24:33.135Z,6.90
2019-02-14T01:27:01.602Z,6.90
2019-02-14T01:29:30.045Z,6.90
2019-02-14T01:31:58.657Z,6.90
2019-02-14T01:34:27.188Z,6.90
2019-02-14T01:36:55.651Z,6.90
2019-02-14T01:39:24.093Z,6.90
2019-02-14T01:41:52.547Z,6.90
2019-02-14T01:44:20.988Z,6.90
2019-02-14T01:46:49.451Z,6.90
2019-02-14T01:49:17.883Z,6.80
2019-02-14T01:51:46.328Z,6.80
2019-02-14T01:54:14.826Z,6.90
2019-02-14T01:56:43.274Z,6.90
2019-02-14T01:59:11.726Z,6.80
2019-02-14T02:01:40.167Z,6.80
2019-02-14T02:04:08.617Z,6.80
2019-02-14T02:06:37.077Z,6.80
2019-02-14T02:09:07.071Z,6.80
2019-02-14T02:11:35.767Z,6.90
2019-02-14T02:14:04.404Z,6.90
2019-02-14T02:16:32.831Z,6.90
2019-02-14T02:19:01.297Z,6.80
2019-02-14T02:21:29.725Z,6.80
2019-02-14T02:23:58.443Z,6.80
2019-02-14T02:26:26.881Z,6.80
2019-02-14T02:28:55.342Z,6.80
2019-02-14T02:31:23.775Z,6.80
2019-02-14T02:33:52.227Z,6.80
2019-02-14T02:36:20.668Z,6.80
2019-02-14T02:38:49.122Z,6.80
2019-02-14T02:41:17.572Z,6.90
2019-02-14T02:43:46.080Z,6.80
2019-02-14T02:46:14.516Z,6.80
2019-02-14T02:48:43.046Z,6.80
2019-02-14T02:51:11.477Z,6.80
2019-02-14T02:53:39.988Z,6.80
2019-02-14T02:56:08.450Z,6.80
2019-02-14T02:58:36.905Z,6.80
2019-02-14T03:01:05.364Z,6.80
2019-02-14T03:03:33.820Z,6.80
2019-02-14T03:06:10.236Z,6.90
2019-02-14T03:08:32.437Z,6.90
2019-02-14T03:11:00.879Z,7.00
2019-02-14T03:13:29.416Z,6.90
2019-02-14T03:15:57.851Z,6.90
2019-02-14T03:18:26.322Z,6.90
2019-02-14T03:20:54.762Z,6.90
2019-02-14T03:23:23.215Z,6.90
2019-02-14T03:25:51.647Z,6.90
2019-02-14T03:28:20.105Z,6.90
2019-02-14T03:30:48.542Z,6.90
2019-02-14T03:33:17.063Z,6.90
2019-02-14T03:35:45.497Z,6.90
2019-02-14T03:38:13.968Z,6.90
2019-02-14T03:40:42.422Z,6.80
2019-02-14T03:43:11.003Z,6.80
2019-02-14T03:45:39.489Z,6.90
2019-02-14T03:48:07.972Z,6.80
2019-02-14T03:50:36.464Z,6.80
2019-02-14T03:53:04.909Z,6.80
2019-02-14T03:55:33.351Z,6.70
2019-02-14T03:58:01.857Z,6.70
2019-02-14T04:00:30.391Z,6.70
2019-02-14T04:02:58.863Z,6.80
2019-02-14T04:05:27.317Z,6.80
2019-02-14T04:07:55.743Z,6.70
2019-02-14T04:10:24.201Z,6.70
2019-02-14T04:12:52.623Z,6.70
2019-02-14T04:15:21.076Z,6.60
2019-02-14T04:17:49.571Z,6.60
2019-02-14T04:20:18.021Z,6.60
2019-02-14T04:22:46.457Z,6.60
2019-02-14T04:25:14.912Z,6.60
2019-02-14T04:27:43.349Z,6.60
2019-02-14T04:30:13.141Z,6.60
2019-02-14T04:32:41.574Z,6.60
2019-02-14T04:35:10.056Z,6.60
2019-02-14T04:37:38.492Z,6.60
2019-02-14T04:40:13.479Z,6.60
2019-02-14T04:42:41.932Z,6.60
2019-02-14T04:45:12.318Z,8.00
2019-02-14T04:47:40.808Z,6.60
2019-02-14T04:50:10.818Z,6.60
2019-02-14T04:52:39.243Z,6.60
2019-02-14T04:55:09.752Z,6.70
2019-02-14T04:57:38.194Z,6.70
2019-02-14T05:00:12.059Z,6.60
2019-02-14T05:02:40.496Z,6.70
2019-02-14T05:05:09.699Z,6.70
2019-02-14T05:07:38.252Z,6.70
2019-02-14T05:10:13.352Z,6.70
2019-02-14T05:12:41.791Z,6.70
2019-02-14T05:15:10.896Z,6.80
2019-02-14T05:17:39.348Z,6.90
2019-02-14T05:20:10.602Z,6.80
2019-02-14T05:22:39.046Z,6.80
2019-02-14T05:25:09.306Z,6.80
2019-02-14T05:27:37.822Z,6.80
2019-02-14T05:30:14.302Z,6.80
2019-02-14T05:32:42.733Z,6.80
2019-02-14T05:35:11.213Z,6.80
2019-02-14T05:37:39.730Z,6.80
2019-02-14T05:40:11.576Z,6.80
2019-02-14T05:42:40.028Z,6.80
2019-02-14T05:45:14.626Z,6.80
2019-02-14T05:47:43.051Z,6.80
2019-02-14T05:50:12.870Z,6.80
2019-02-14T05:52:41.301Z,6.80
2019-02-14T05:55:11.291Z,6.80
2019-02-14T05:57:39.853Z,6.90
2019-02-14T06:00:17.200Z,6.80
2019-02-14T06:02:45.653Z,6.80
2019-02-14T06:05:14.098Z,6.80
2019-02-14T06:07:42.614Z,6.80
2019-02-14T06:10:11.802Z,6.80
2019-02-14T06:12:40.254Z,6.80
2019-02-14T06:15:11.499Z,6.70
2019-02-14T06:17:39.946Z,6.70
2019-02-14T06:20:12.226Z,6.70
2019-02-14T06:22:40.691Z,6.80
2019-02-14T06:25:12.935Z,6.80
2019-02-14T06:27:41.570Z,6.80
2019-02-14T06:30:14.497Z,6.80
2019-02-14T06:32:42.964Z,6.80
2019-02-14T06:35:11.825Z,6.80
2019-02-14T06:37:40.296Z,6.80
2019-02-14T06:40:11.132Z,6.80
2019-02-14T06:42:39.591Z,6.80
2019-02-14T06:45:11.022Z,6.80
2019-02-14T06:47:39.494Z,6.80
2019-02-14T06:50:08.962Z,6.80
2019-02-14T06:52:37.419Z,6.80
2019-02-14T06:55:06.619Z,6.90
2019-02-14T06:57:35.087Z,6.90
2019-02-14T07:00:04.492Z,6.90
2019-02-14T07:02:32.946Z,6.90
2019-02-14T07:05:01.399Z,6.90
2019-02-14T07:07:29.883Z,6.90
2019-02-14T07:09:58.322Z,6.90
2019-02-14T07:12:26.793Z,6.90
2019-02-14T07:14:55.229Z,6.90
2019-02-14T07:17:23.684Z,7.00
2019-02-14T07:19:52.121Z,7.00
2019-02-14T07:22:20.577Z,7.00
2019-02-14T07:24:49.027Z,7.00
2019-02-14T07:27:17.486Z,7.10
2019-02-14T07:29:45.924Z,7.10
2019-02-14T07:32:14.407Z,7.10
2019-02-14T07:34:42.910Z,7.10
2019-02-14T07:37:11.368Z,7.10
2019-02-14T07:39:39.805Z,7.10
2019-02-14T07:42:08.264Z,7.10
2019-02-14T07:44:36.703Z,7.10
2019-02-14T07:47:05.162Z,7.10
2019-02-14T07:49:33.614Z,7.10
2019-02-14T07:52:02.136Z,7.20
2019-02-14T07:54:30.562Z,7.20
2019-02-14T07:56:59.017Z,7.20
2019-02-14T07:59:27.465Z,7.20
2019-02-14T08:01:55.969Z,7.30
2019-02-14T08:04:24.407Z,7.30
2019-02-14T08:06:52.871Z,7.30
2019-02-14T08:09:21.298Z,7.30
2019-02-14T08:11:49.787Z,7.30
2019-02-14T08:14:18.304Z,7.30
2019-02-14T08:16:46.829Z,7.30
2019-02-14T08:19:15.249Z,7.30
2019-02-14T08:21:43.719Z,7.30
2019-02-14T08:24:12.162Z,7.30
2019-02-14T08:26:40.623Z,7.30
2019-02-14T08:29:09.067Z,7.40
2019-02-14T08:31:37.526Z,7.40
2019-02-14T08:34:05.999Z,7.40
2019-02-14T08:36:34.422Z,7.40
2019-02-14T08:39:04.651Z,7.40
2019-02-14T08:41:33.081Z,7.50
2019-02-14T08:44:01.537Z,7.60
2019-02-14T08:46:29.982Z,7.70
2019-02-14T08:48:58.438Z,7.70
2019-02-14T08:51:26.884Z,7.80
2019-02-14T08:53:55.335Z,7.80
2019-02-14T08:56:23.780Z,7.80
2019-02-14T08:58:52.237Z,7.80
2019-02-14T09:01:20.702Z,7.80
2019-02-14T09:03:49.207Z,7.90
2019-02-14T09:06:17.655Z,7.80
2019-02-14T09:08:46.102Z,7.80
2019-02-14T09:11:14.548Z,7.90
2019-02-14T09:13:43.001Z,8.00
2019-02-14T09:16:11.441Z,7.90
2019-02-14T09:18:39.882Z,8.00
2019-02-14T09:21:08.326Z,8.10
2019-02-14T09:23:36.794Z,8.20
2019-02-14T09:26:05.242Z,8.40
2019-02-14T09:28:33.758Z,8.40
2019-02-14T09:31:02.193Z,8.40
2019-02-14T09:33:30.646Z,8.40
2019-02-14T09:35:59.077Z,8.40
2019-02-14T09:38:27.534Z,8.40
2019-02-14T09:40:55.986Z,8.50
2019-02-14T09:43:29.808Z,8.50
2019-02-14T09:45:54.602Z,8.50
2019-02-14T09:48:23.059Z,8.60
2019-02-14T09:50:51.497Z,8.70
2019-02-14T09:53:19.953Z,8.80
2019-02-14T09:55:48.394Z,8.90
2019-02-14T09:58:16.850Z,8.90
2019-02-14T10:00:45.298Z,9.10
2019-02-14T10:03:13.815Z,9.30
2019-02-14T10:05:42.259Z,9.20
2019-02-14T10:08:12.826Z,9.20
2019-02-14T10:10:40.872Z,9.10
2019-02-14T10:13:09.333Z,9.10
2019-02-14T10:15:37.758Z,9.10
2019-02-14T10:18:06.214Z,9.00
2019-02-14T10:20:34.679Z,8.90
2019-02-14T10:23:03.119Z,8.90
2019-02-14T10:25:31.541Z,8.90
2019-02-14T10:28:00.001Z,9.00
2019-02-14T10:30:28.438Z,9.20
2019-02-14T10:32:56.882Z,9.30
2019-02-14T10:35:25.316Z,9.50
2019-02-14T10:37:53.775Z,9.40
2019-02-14T10:40:22.216Z,9.40
2019-02-14T10:42:50.675Z,9.40
2019-02-14T10:45:23.036Z,9.30
2019-02-14T10:47:51.498Z,9.20
2019-02-14T10:50:19.929Z,9.20
2019-02-14T10:52:48.414Z,9.30
2019-02-14T10:55:17.023Z,9.40
2019-02-14T10:57:45.452Z,9.50
2019-02-14T11:00:17.377Z,9.50
2019-02-14T11:02:45.987Z,9.40
2019-02-14T11:05:15.293Z,9.40
2019-02-14T11:07:43.753Z,9.40
2019-02-14T11:10:13.706Z,9.50
2019-02-14T11:12:42.142Z,9.50
2019-02-14T11:15:21.802Z,9.40
2019-02-14T11:17:50.234Z,9.30
2019-02-14T11:20:18.691Z,9.10
2019-02-14T11:22:48.828Z,9.20
2019-02-14T11:25:34.379Z,9.20
2019-02-14T11:28:02.812Z,9.20
2019-02-14T11:30:31.269Z,9.10
2019-02-14T11:32:59.724Z,9.10
2019-02-14T11:35:28.182Z,9.00
2019-02-14T11:37:56.617Z,9.00
2019-02-14T11:40:25.078Z,8.90
2019-02-14T11:42:53.521Z,8.90
2019-02-14T11:45:25.056Z,8.90
2019-02-14T11:47:53.482Z,9.00
2019-02-14T11:50:21.937Z,9.20
2019-02-14T11:52:50.385Z,9.30
2019-02-14T11:55:18.844Z,9.40
2019-02-14T11:57:47.281Z,9.40
2019-02-14T12:00:19.121Z,9.40
2019-02-14T12:02:55.022Z,9.50
2019-02-14T12:05:17.737Z,9.70
2019-02-14T12:07:46.170Z,9.80
2019-02-14T12:10:14.898Z,9.80
2019-02-14T12:12:43.325Z,9.80
2019-02-14T12:15:13.222Z,9.80
2019-02-14T12:17:41.685Z,9.80
2019-02-14T12:20:12.808Z,9.80
2019-02-14T12:22:46.643Z,9.90
2019-02-14T12:25:17.358Z,10.00
2019-02-14T12:27:45.790Z,10.10
2019-02-14T12:30:15.211Z,10.10
2019-02-14T12:32:43.653Z,10.10
2019-02-14T12:35:12.198Z,10.10
2019-02-14T12:37:40.638Z,10.10
2019-02-14T12:40:11.160Z,10.00
2019-02-14T12:42:39.636Z,9.90
2019-02-14T12:45:21.487Z,9.90
2019-02-14T12:47:46.887Z,9.90
2019-02-14T12:50:15.515Z,9.90
2019-02-14T12:52:43.978Z,10.00
2019-02-14T12:55:12.436Z,10.00
2019-02-14T12:57:40.886Z,10.00
2019-02-14T13:00:12.413Z,10.00
2019-02-14T13:02:40.854Z,10.00
2019-02-14T13:05:09.491Z,10.00
2019-02-14T13:07:37.922Z,10.10
2019-02-14T13:10:11.650Z,10.10
2019-02-14T13:12:40.102Z,10.20
2019-02-14T13:15:13.856Z,10.20
2019-02-14T13:17:42.335Z,10.20
2019-02-14T13:20:10.839Z,10.10
2019-02-14T13:22:39.287Z,10.20
2019-02-14T13:25:10.167Z,10.30
2019-02-14T13:27:38.628Z,10.30
2019-02-14T13:30:10.254Z,10.30
2019-02-14T13:32:38.699Z,10.30
2019-02-14T13:35:07.246Z,10.30
2019-02-14T13:37:35.749Z,10.40
2019-02-14T13:40:05.123Z,10.40
2019-02-14T13:42:33.589Z,10.40
2019-02-14T13:45:02.041Z,10.50
2019-02-14T13:47:30.579Z,10.50
2019-02-14T13:49:59.023Z,10.40
2019-02-14T13:52:27.483Z,10.50
2019-02-14T13:54:55.923Z,10.40
2019-02-14T13:57:24.450Z,10.40
2019-02-14T13:59:52.908Z,10.40
2019-02-14T14:02:21.370Z,10.40
2019-02-14T14:04:49.808Z,10.40
2019-02-14T14:07:18.357Z,10.40
2019-02-14T14:09:46.870Z,10.40
2019-02-14T14:12:15.330Z,10.30
2019-02-14T14:14:43.774Z,10.30
2019-02-14T14:17:12.238Z,10.30
2019-02-14T14:19:40.673Z,10.30
2019-02-14T14:22:09.145Z,10.30
2019-02-14T14:24:37.575Z,10.30
2019-02-14T14:27:06.156Z,10.20
2019-02-14T14:29:34.630Z,10.20
2019-02-14T14:32:03.914Z,10.20
2019-02-14T14:34:32.357Z,10.20
2019-02-14T14:37:00.810Z,10.20
2019-02-14T14:39:29.262Z,10.20
2019-02-14T14:41:57.731Z,10.20
2019-02-14T14:44:30.509Z,10.20
2019-02-14T14:46:59.017Z,10.10
2019-02-14T14:49:27.452Z,10.10
2019-02-14T14:51:55.949Z,10.20
2019-02-14T14:54:24.438Z,10.20
2019-02-14T14:56:52.903Z,10.20
2019-02-14T14:59:21.350Z,10.10
2019-02-14T15:01:49.822Z,10.10
2019-02-14T15:04:18.302Z,10.10
2019-02-14T15:06:46.776Z,10.10
2019-02-14T15:09:15.273Z,10.10
2019-02-14T15:11:43.779Z,10.10
2019-02-14T15:14:12.235Z,10.10
2019-02-14T15:16:40.685Z,10.00
2019-02-14T15:19:09.128Z,10.00
2019-02-14T15:21:37.583Z,10.00
2019-02-14T15:24:06.058Z,10.00
2019-02-14T15:26:34.499Z,9.90
2019-02-14T15:29:02.970Z,9.90
2019-02-14T15:31:31.413Z,9.80
2019-02-14T15:33:59.895Z,9.80
2019-02-14T15:36:28.350Z,9.70
2019-02-14T15:38:56.862Z,9.70
2019-02-14T15:41:25.313Z,9.70
2019-02-14T15:43:53.769Z,9.70
2019-02-14T15:46:22.331Z,9.60
2019-02-14T15:48:50.814Z,9.60
2019-02-14T15:51:20.055Z,9.60
2019-02-14T15:53:48.662Z,9.60
2019-02-14T15:56:17.118Z,9.50
2019-02-14T15:58:45.575Z,9.50
2019-02-14T16:01:16.471Z,9.40
2019-02-14T16:03:44.188Z,9.30
2019-02-14T16:06:12.619Z,9.20
2019-02-14T16:08:41.067Z,9.20
2019-02-14T16:11:11.434Z,9.10
2019-02-14T16:13:39.678Z,9.10
2019-02-14T16:16:08.131Z,9.00
2019-02-14T16:18:36.582Z,8.90
2019-02-14T16:21:05.811Z,9.00
2019-02-14T16:23:35.203Z,8.90
2019-02-14T16:26:03.639Z,8.90
2019-02-14T16:28:32.098Z,8.80
2019-02-14T16:31:00.542Z,8.80
2019-02-14T16:33:28.991Z,8.70
2019-02-14T16:35:57.441Z,8.50
2019-02-14T16:38:25.900Z,8.50
2019-02-14T16:40:54.337Z,8.50
2019-02-14T16:43:22.796Z,8.50
2019-02-14T16:45:51.230Z,8.50
2019-02-14T16:48:19.686Z,8.50
2019-02-14T16:50:48.154Z,8.40
2019-02-14T16:53:16.624Z,8.20
2019-02-14T16:55:45.058Z,8.20
2019-02-14T16:58:13.509Z,8.10
2019-02-14T17:00:41.934Z,8.00
2019-02-14T17:03:10.611Z,7.90
2019-02-14T17:05:39.046Z,7.90
2019-02-14T17:08:07.502Z,7.80
2019-02-14T17:10:37.282Z,7.80
2019-02-14T17:13:05.901Z,7.80
2019-02-14T17:15:34.344Z,7.80
2019-02-14T17:18:02.796Z,7.70
2019-02-14T17:20:31.266Z,7.70
2019-02-14T17:22:59.738Z,7.60
2019-02-14T17:25:28.242Z,7.60
2019-02-14T17:27:56.678Z,7.50
2019-02-14T17:30:25.148Z,7.50
2019-02-14T17:32:53.603Z,7.40
2019-02-14T17:35:22.063Z,7.40
2019-02-14T17:37:50.507Z,7.40
2019-02-14T17:40:18.964Z,7.40
2019-02-14T17:42:47.390Z,7.30
2019-02-14T17:45:15.850Z,7.30
2019-02-14T17:47:44.278Z,7.30
2019-02-14T17:50:12.742Z,7.30
2019-02-14T17:52:41.176Z,7.40
2019-02-14T17:55:10.178Z,7.30
2019-02-14T17:57:38.606Z,7.30
2019-02-14T18:00:10.241Z,7.20
2019-02-14T18:02:38.679Z,7.20
2019-02-14T18:05:08.894Z,7.10
2019-02-14T18:07:37.389Z,7.10
2019-02-14T18:10:11.445Z,7.20
2019-02-14T18:12:39.918Z,7.20
2019-02-14T18:15:14.740Z,7.30
2019-02-14T18:17:43.175Z,7.20
2019-02-14T18:20:11.809Z,7.10
2019-02-14T18:22:40.313Z,7.00
2019-02-14T18:25:11.581Z,6.90
2019-02-14T18:27:40.006Z,6.90
2019-02-14T18:30:10.429Z,6.80
2019-02-14T18:32:38.930Z,6.90
2019-02-14T18:35:10.232Z,6.90
2019-02-14T18:37:38.678Z,7.00
2019-02-14T18:40:10.306Z,7.00
2019-02-14T18:42:41.395Z,6.90
2019-02-14T18:45:12.011Z,6.90
2019-02-14T18:47:40.525Z,6.90
2019-02-14T18:50:11.332Z,6.80
2019-02-14T18:52:39.831Z,6.70
2019-02-14T18:55:10.046Z,6.80
2019-02-14T18:57:38.495Z,6.80
2019-02-14T19:00:10.843Z,6.70
2019-02-14T19:02:39.286Z,6.60
2019-02-14T19:05:09.876Z,6.60
2019-02-14T19:07:38.308Z,6.60
2019-02-14T19:10:12.601Z,6.60
2019-02-14T19:12:41.036Z,6.60
2019-02-14T19:15:12.194Z,6.50
2019-02-14T19:17:40.764Z,6.50
2019-02-14T19:20:10.671Z,6.40
2019-02-14T19:22:40.469Z,6.40
2019-02-14T19:25:10.537Z,6.40
2019-02-14T19:27:39.061Z,6.40
2019-02-14T19:30:09.801Z,6.30
2019-02-14T19:32:38.284Z,6.30
2019-02-14T19:35:08.626Z,6.30
2019-02-14T19:37:37.249Z,6.30
2019-02-14T19:40:08.720Z,6.30
2019-02-14T19:42:37.206Z,6.40
2019-02-14T19:45:09.006Z,6.30
2019-02-14T19:47:37.517Z,6.30
2019-02-14T19:50:10.659Z,6.30
2019-02-14T19:52:39.229Z,6.30
2019-02-14T19:55:09.203Z,6.30
2019-02-14T19:57:37.675Z,6.30
2019-02-14T20:00:14.118Z,6.30
2019-02-14T20:02:42.585Z,6.30
2019-02-14T20:05:11.096Z,6.30
2019-02-14T20:07:39.609Z,6.30
2019-02-14T20:10:14.868Z,6.30
2019-02-14T20:12:43.402Z,6.30
2019-02-14T20:15:16.618Z,6.20
2019-02-14T20:17:45.127Z,6.20
2019-02-14T20:20:13.699Z,6.20
2019-02-14T20:22:42.231Z,6.10
2019-02-14T20:25:13.617Z,6.10
2019-02-14T20:27:42.069Z,6.00
2019-02-14T20:30:10.575Z,6.00
2019-02-14T20:32:39.039Z,6.00
2019-02-14T20:35:08.607Z,6.00
2019-02-14T20:37:37.079Z,6.00
2019-02-14T20:40:10.062Z,6.00
2019-02-14T20:42:38.490Z,6.10
2019-02-14T20:45:09.943Z,6.20
2019-02-14T20:47:38.437Z,6.30
2019-02-14T20:50:12.554Z,6.20
2019-02-14T20:52:41.013Z,6.20
2019-02-14T20:55:23.258Z,6.10
2019-02-14T20:57:51.734Z,6.10
2019-02-14T21:00:21.955Z,6.10
2019-02-14T21:02:50.465Z,6.10
2019-02-14T21:05:18.912Z,6.10
2019-02-14T21:07:47.351Z,6.10
2019-02-14T21:10:15.806Z,6.10
2019-02-14T21:12:44.267Z,6.10
2019-02-14T21:15:12.726Z,6.10
2019-02-14T21:17:41.156Z,6.10
2019-02-14T21:20:14.100Z,6.00
2019-02-14T21:22:42.522Z,6.00
2019-02-14T21:25:11.051Z,6.00
2019-02-14T21:27:39.494Z,5.90
2019-02-14T21:30:14.251Z,5.90
2019-02-14T21:32:42.851Z,5.90
2019-02-14T21:35:11.371Z,5.90
2019-02-14T21:37:39.872Z,5.80
2019-02-14T21:40:11.480Z,5.80
2019-02-14T21:42:39.941Z,5.70
2019-02-14T21:45:11.283Z,5.70
2019-02-14T21:47:39.760Z,5.70
2019-02-14T21:50:10.970Z,5.70
2019-02-14T21:52:39.544Z,5.60
2019-02-14T21:55:14.538Z,5.60
2019-02-14T21:57:43.090Z,5.70
2019-02-14T22:00:26.082Z,5.70
2019-02-14T22:02:54.836Z,5.70
2019-02-14T22:05:25.888Z,5.70
2019-02-14T22:07:53.590Z,5.80
2019-02-14T22:10:22.122Z,5.80
2019-02-14T22:12:50.633Z,5.80
2019-02-14T22:15:23.857Z,5.80
2019-02-14T22:17:52.301Z,5.80
2019-02-14T22:20:20.823Z,5.80
2019-02-14T22:22:49.270Z,5.80
2019-02-14T22:25:17.732Z,5.80
2019-02-14T22:27:46.651Z,5.70
2019-02-14T22:30:18.659Z,5.70
2019-02-14T22:32:47.096Z,5.70
2019-02-14T22:35:15.549Z,5.70
2019-02-14T22:37:43.979Z,5.70
2019-02-14T22:40:14.332Z,5.70
2019-02-14T22:42:47.150Z,5.70
2019-02-14T22:45:15.940Z,5.60
2019-02-14T22:47:44.839Z,5.60
2019-02-14T22:50:13.744Z,5.60
2019-02-14T22:52:42.248Z,5.50
2019-02-14T22:55:13.912Z,5.50
2019-02-14T22:57:42.360Z,5.40
2019-02-14T23:00:24.303Z,5.40
2019-02-14T23:02:52.728Z,5.30
2019-02-14T23:05:21.180Z,5.30
2019-02-14T23:07:49.622Z,5.30
2019-02-14T23:10:18.079Z,5.30
2019-02-14T23:12:55.185Z,5.20
2019-02-14T23:15:16.695Z,5.20
2019-02-14T23:17:45.144Z,5.20
2019-02-14T23:20:13.597Z,5.10
2019-02-14T23:22:42.040Z,5.10
2019-02-14T23:25:10.488Z,5.10
2019-02-14T23:27:38.940Z,5.10
2019-02-14T23:30:11.950Z,5.10
2019-02-14T23:32:40.377Z,5.10
2019-02-14T23:35:08.901Z,5.10
2019-02-14T23:37:37.330Z,5.10
2019-02-14T23:40:06.819Z,5.10
2019-02-14T23:42:35.258Z,5.00
2019-02-14T23:45:04.343Z,5.10
2019-02-14T23:47:32.783Z,5.00
2019-02-14T23:50:01.467Z,4.90
2019-02-14T23:52:29.905Z,4.90
2019-02-14T23:54:58.334Z,4.90
2019-02-14T23:57:26.785Z,4.90
2019-02-14T23:59:55.225Z,4.90
